sensor_id;sensor_type;location;lat;lon;timestamp;P1;durP1;ratioP1;P2;durP2;ratioP2
24801;SDS011;12898;50.520;12.152;2023-11-18T00:01:23;3.50;;;1.60;;
24801;SDS011;12898;50.520;12.152;2023-11-18T00:03:49;5.60;;;1.77;;
24801;SDS011;12898;50.520;12.152;2023-11-18T00:06:15;6.83;;;1.87;;
24801;SDS011;12898;50.520;12.152;2023-11-18T00:08:41;3.40;;;1.93;;
24801;SDS011;12898;50.520;12.152;2023-11-18T00:11:07;2.73;;;1.67;;
24801;SDS011;12898;50.520;12.152;2023-11-18T00:13:34;5.07;;;1.70;;
24801;SDS011;12898;50.520;12.152;2023-11-18T00:15:59;4.27;;;2.17;;
24801;SDS011;12898;50.520;12.152;2023-11-18T00:18:25;4.30;;;2.20;;
24801;SDS011;12898;50.520;12.152;2023-11-18T00:20:51;4.97;;;2.07;;
24801;SDS011;12898;50.520;12.152;2023-11-18T00:23:17;3.07;;;1.80;;
24801;SDS011;12898;50.520;12.152;2023-11-18T00:25:43;4.90;;;1.93;;
24801;SDS011;12898;50.520;12.152;2023-11-18T00:28:10;5.90;;;2.60;;
24801;SDS011;12898;50.520;12.152;2023-11-18T00:30:39;4.37;;;2.20;;
24801;SDS011;12898;50.520;12.152;2023-11-18T00:33:05;3.97;;;2.20;;
24801;SDS011;12898;50.520;12.152;2023-11-18T00:35:30;8.70;;;2.50;;
24801;SDS011;12898;50.520;12.152;2023-11-18T00:37:58;4.77;;;2.53;;
24801;SDS011;12898;50.520;12.152;2023-11-18T00:40:25;5.50;;;2.20;;
24801;SDS011;12898;50.520;12.152;2023-11-18T00:42:51;4.23;;;2.30;;
24801;SDS011;12898;50.520;12.152;2023-11-18T00:45:16;6.63;;;2.77;;
24801;SDS011;12898;50.520;12.152;2023-11-18T00:47:43;6.93;;;2.63;;
24801;SDS011;12898;50.520;12.152;2023-11-18T00:50:09;6.83;;;2.80;;
24801;SDS011;12898;50.520;12.152;2023-11-18T00:52:34;5.67;;;2.47;;
24801;SDS011;12898;50.520;12.152;2023-11-18T00:55:03;6.03;;;2.93;;
24801;SDS011;12898;50.520;12.152;2023-11-18T00:57:31;6.50;;;2.27;;
24801;SDS011;12898;50.520;12.152;2023-11-18T00:59:57;4.17;;;2.13;;
24801;SDS011;12898;50.520;12.152;2023-11-18T01:02:23;5.33;;;2.53;;
24801;SDS011;12898;50.520;12.152;2023-11-18T01:04:49;4.30;;;2.40;;
24801;SDS011;12898;50.520;12.152;2023-11-18T01:07:16;5.23;;;2.53;;
24801;SDS011;12898;50.520;12.152;2023-11-18T01:09:41;4.43;;;2.40;;
24801;SDS011;12898;50.520;12.152;2023-11-18T01:12:07;4.97;;;2.00;;
24801;SDS011;12898;50.520;12.152;2023-11-18T01:14:38;4.00;;;2.40;;
24801;SDS011;12898;50.520;12.152;2023-11-18T01:17:05;8.40;;;2.53;;
24801;SDS011;12898;50.520;12.152;2023-11-18T01:19:31;6.00;;;2.70;;
24801;SDS011;12898;50.520;12.152;2023-11-18T01:21:58;5.77;;;3.00;;
24801;SDS011;12898;50.520;12.152;2023-11-18T01:24:24;7.33;;;2.50;;
24801;SDS011;12898;50.520;12.152;2023-11-18T01:26:50;6.63;;;2.63;;
24801;SDS011;12898;50.520;12.152;2023-11-18T01:29:16;7.20;;;3.03;;
24801;SDS011;12898;50.520;12.152;2023-11-18T01:31:42;7.50;;;3.10;;
24801;SDS011;12898;50.520;12.152;2023-11-18T01:34:08;5.63;;;3.10;;
24801;SDS011;12898;50.520;12.152;2023-11-18T01:36:34;5.60;;;2.80;;
24801;SDS011;12898;50.520;12.152;2023-11-18T01:39:00;7.03;;;3.23;;
24801;SDS011;12898;50.520;12.152;2023-11-18T01:41:26;5.63;;;3.00;;
24801;SDS011;12898;50.520;12.152;2023-11-18T01:43:52;8.90;;;3.20;;
24801;SDS011;12898;50.520;12.152;2023-11-18T01:46:18;5.87;;;2.80;;
24801;SDS011;12898;50.520;12.152;2023-11-18T01:48:45;7.73;;;3.17;;
24801;SDS011;12898;50.520;12.152;2023-11-18T01:51:11;6.63;;;3.17;;
24801;SDS011;12898;50.520;12.152;2023-11-18T01:53:37;6.77;;;2.90;;
24801;SDS011;12898;50.520;12.152;2023-11-18T01:56:05;6.60;;;2.93;;
24801;SDS011;12898;50.520;12.152;2023-11-18T01:58:33;6.80;;;2.93;;
24801;SDS011;12898;50.520;12.152;2023-11-18T02:01:01;5.50;;;2.77;;
24801;SDS011;12898;50.520;12.152;2023-11-18T02:03:28;4.40;;;2.50;;
24801;SDS011;12898;50.520;12.152;2023-11-18T02:05:55;5.70;;;2.87;;
24801;SDS011;12898;50.520;12.152;2023-11-18T02:08:22;7.00;;;2.93;;
24801;SDS011;12898;50.520;12.152;2023-11-18T02:10:48;6.60;;;3.20;;
24801;SDS011;12898;50.520;12.152;2023-11-18T02:13:24;4.80;;;2.70;;
24801;SDS011;12898;50.520;12.152;2023-11-18T02:15:56;5.53;;;2.50;;
24801;SDS011;12898;50.520;12.152;2023-11-18T02:18:24;6.93;;;3.30;;
24801;SDS011;12898;50.520;12.152;2023-11-18T02:20:51;4.77;;;2.90;;
24801;SDS011;12898;50.520;12.152;2023-11-18T02:23:22;6.60;;;3.03;;
24801;SDS011;12898;50.520;12.152;2023-11-18T02:25:49;6.90;;;3.20;;
24801;SDS011;12898;50.520;12.152;2023-11-18T02:28:14;5.70;;;3.03;;
24801;SDS011;12898;50.520;12.152;2023-11-18T02:30:41;5.33;;;2.70;;
24801;SDS011;12898;50.520;12.152;2023-11-18T02:33:18;4.63;;;2.60;;
24801;SDS011;12898;50.520;12.152;2023-11-18T02:35:59;4.97;;;2.63;;
24801;SDS011;12898;50.520;12.152;2023-11-18T02:38:39;4.30;;;2.50;;
24801;SDS011;12898;50.520;12.152;2023-11-18T02:41:12;7.37;;;3.10;;
24801;SDS011;12898;50.520;12.152;2023-11-18T02:43:40;7.40;;;3.33;;
24801;SDS011;12898;50.520;12.152;2023-11-18T02:46:07;5.47;;;2.87;;
24801;SDS011;12898;50.520;12.152;2023-11-18T02:48:34;7.00;;;2.90;;
24801;SDS011;12898;50.520;12.152;2023-11-18T02:51:02;6.57;;;3.17;;
24801;SDS011;12898;50.520;12.152;2023-11-18T02:53:29;7.40;;;3.40;;
24801;SDS011;12898;50.520;12.152;2023-11-18T02:55:54;6.93;;;3.17;;
24801;SDS011;12898;50.520;12.152;2023-11-18T02:58:27;6.90;;;3.43;;
24801;SDS011;12898;50.520;12.152;2023-11-18T03:00:54;8.80;;;3.77;;
24801;SDS011;12898;50.520;12.152;2023-11-18T03:03:20;8.17;;;3.90;;
24801;SDS011;12898;50.520;12.152;2023-11-18T03:05:46;11.57;;;4.47;;
24801;SDS011;12898;50.520;12.152;2023-11-18T03:08:15;11.77;;;4.13;;
24801;SDS011;12898;50.520;12.152;2023-11-18T03:10:41;11.97;;;5.10;;
24801;SDS011;12898;50.520;12.152;2023-11-18T03:13:09;11.70;;;5.10;;
24801;SDS011;12898;50.520;12.152;2023-11-18T03:15:37;10.80;;;4.50;;
24801;SDS011;12898;50.520;12.152;2023-11-18T03:18:03;9.43;;;4.33;;
24801;SDS011;12898;50.520;12.152;2023-11-18T03:20:30;9.03;;;4.13;;
24801;SDS011;12898;50.520;12.152;2023-11-18T03:22:59;9.57;;;4.27;;
24801;SDS011;12898;50.520;12.152;2023-11-18T03:25:26;8.10;;;3.53;;
24801;SDS011;12898;50.520;12.152;2023-11-18T03:27:52;9.67;;;4.10;;
24801;SDS011;12898;50.520;12.152;2023-11-18T03:30:19;8.80;;;4.33;;
24801;SDS011;12898;50.520;12.152;2023-11-18T03:32:46;11.10;;;4.93;;
24801;SDS011;12898;50.520;12.152;2023-11-18T03:35:12;10.57;;;4.70;;
24801;SDS011;12898;50.520;12.152;2023-11-18T03:37:38;9.63;;;4.40;;
24801;SDS011;12898;50.520;12.152;2023-11-18T03:40:09;10.10;;;4.83;;
24801;SDS011;12898;50.520;12.152;2023-11-18T03:42:37;14.07;;;7.07;;
24801;SDS011;12898;50.520;12.152;2023-11-18T03:45:05;10.80;;;4.40;;
24801;SDS011;12898;50.520;12.152;2023-11-18T03:47:31;10.03;;;4.90;;
24801;SDS011;12898;50.520;12.152;2023-11-18T03:49:58;9.83;;;4.67;;
24801;SDS011;12898;50.520;12.152;2023-11-18T03:52:24;11.43;;;4.90;;
24801;SDS011;12898;50.520;12.152;2023-11-18T03:54:50;10.13;;;5.20;;
24801;SDS011;12898;50.520;12.152;2023-11-18T03:57:16;12.67;;;5.20;;
24801;SDS011;12898;50.520;12.152;2023-11-18T03:59:42;10.80;;;5.13;;
24801;SDS011;12898;50.520;12.152;2023-11-18T04:02:08;12.07;;;5.47;;
24801;SDS011;12898;50.520;12.152;2023-11-18T04:04:36;10.17;;;5.00;;
24801;SDS011;12898;50.520;12.152;2023-11-18T04:07:03;11.97;;;5.00;;
24801;SDS011;12898;50.520;12.152;2023-11-18T04:09:29;14.13;;;5.60;;
24801;SDS011;12898;50.520;12.152;2023-11-18T04:11:55;10.80;;;5.17;;
24801;SDS011;12898;50.520;12.152;2023-11-18T04:14:21;12.00;;;5.10;;
24801;SDS011;12898;50.520;12.152;2023-11-18T04:16:50;14.23;;;5.93;;
24801;SDS011;12898;50.520;12.152;2023-11-18T04:19:16;15.53;;;5.57;;
24801;SDS011;12898;50.520;12.152;2023-11-18T04:21:42;13.00;;;5.23;;
24801;SDS011;12898;50.520;12.152;2023-11-18T04:24:12;12.83;;;4.97;;
24801;SDS011;12898;50.520;12.152;2023-11-18T04:26:38;13.23;;;5.53;;
24801;SDS011;12898;50.520;12.152;2023-11-18T04:29:04;13.60;;;5.60;;
24801;SDS011;12898;50.520;12.152;2023-11-18T04:31:29;15.97;;;5.93;;
24801;SDS011;12898;50.520;12.152;2023-11-18T04:33:55;13.90;;;6.03;;
24801;SDS011;12898;50.520;12.152;2023-11-18T04:36:21;13.33;;;5.17;;
24801;SDS011;12898;50.520;12.152;2023-11-18T04:38:47;11.63;;;5.00;;
24801;SDS011;12898;50.520;12.152;2023-11-18T04:41:13;11.17;;;4.90;;
24801;SDS011;12898;50.520;12.152;2023-11-18T04:43:40;9.07;;;4.47;;
24801;SDS011;12898;50.520;12.152;2023-11-18T04:46:07;10.40;;;4.53;;
24801;SDS011;12898;50.520;12.152;2023-11-18T04:48:33;14.00;;;5.30;;
24801;SDS011;12898;50.520;12.152;2023-11-18T04:51:00;10.13;;;4.60;;
24801;SDS011;12898;50.520;12.152;2023-11-18T04:53:26;10.37;;;4.47;;
24801;SDS011;12898;50.520;12.152;2023-11-18T04:55:51;12.73;;;4.90;;
24801;SDS011;12898;50.520;12.152;2023-11-18T04:58:18;14.03;;;4.70;;
24801;SDS011;12898;50.520;12.152;2023-11-18T05:00:44;10.57;;;4.87;;
24801;SDS011;12898;50.520;12.152;2023-11-18T05:03:10;10.30;;;4.67;;
24801;SDS011;12898;50.520;12.152;2023-11-18T05:05:38;9.37;;;4.50;;
24801;SDS011;12898;50.520;12.152;2023-11-18T05:08:05;11.73;;;4.50;;
24801;SDS011;12898;50.520;12.152;2023-11-18T05:10:32;9.90;;;4.33;;
24801;SDS011;12898;50.520;12.152;2023-11-18T05:12:58;9.47;;;4.40;;
24801;SDS011;12898;50.520;12.152;2023-11-18T05:15:24;14.17;;;5.77;;
24801;SDS011;12898;50.520;12.152;2023-11-18T05:17:50;9.50;;;4.47;;
24801;SDS011;12898;50.520;12.152;2023-11-18T05:20:20;11.43;;;5.17;;
24801;SDS011;12898;50.520;12.152;2023-11-18T05:22:47;10.03;;;4.53;;
24801;SDS011;12898;50.520;12.152;2023-11-18T05:25:13;8.73;;;4.37;;
24801;SDS011;12898;50.520;12.152;2023-11-18T05:27:39;10.17;;;4.50;;
24801;SDS011;12898;50.520;12.152;2023-11-18T05:30:05;9.97;;;4.50;;
24801;SDS011;12898;50.520;12.152;2023-11-18T05:32:33;9.40;;;4.30;;
24801;SDS011;12898;50.520;12.152;2023-11-18T05:34:59;11.60;;;4.53;;
24801;SDS011;12898;50.520;12.152;2023-11-18T05:37:25;7.83;;;4.20;;
24801;SDS011;12898;50.520;12.152;2023-11-18T05:39:54;10.37;;;4.90;;
24801;SDS011;12898;50.520;12.152;2023-11-18T05:42:31;8.90;;;3.90;;
24801;SDS011;12898;50.520;12.152;2023-11-18T05:44:58;8.97;;;4.07;;
24801;SDS011;12898;50.520;12.152;2023-11-18T05:47:27;10.43;;;4.20;;
24801;SDS011;12898;50.520;12.152;2023-11-18T05:49:53;7.30;;;3.30;;
24801;SDS011;12898;50.520;12.152;2023-11-18T05:52:22;6.93;;;3.37;;
24801;SDS011;12898;50.520;12.152;2023-11-18T05:54:48;6.43;;;3.63;;
24801;SDS011;12898;50.520;12.152;2023-11-18T05:57:17;7.80;;;3.80;;
24801;SDS011;12898;50.520;12.152;2023-11-18T05:59:44;7.97;;;4.13;;
24801;SDS011;12898;50.520;12.152;2023-11-18T06:02:13;8.83;;;3.73;;
24801;SDS011;12898;50.520;12.152;2023-11-18T06:04:43;8.47;;;3.80;;
24801;SDS011;12898;50.520;12.152;2023-11-18T06:07:10;7.37;;;3.67;;
24801;SDS011;12898;50.520;12.152;2023-11-18T06:09:38;8.93;;;3.80;;
24801;SDS011;12898;50.520;12.152;2023-11-18T06:12:07;10.53;;;4.30;;
24801;SDS011;12898;50.520;12.152;2023-11-18T06:14:35;7.53;;;3.87;;
24801;SDS011;12898;50.520;12.152;2023-11-18T06:17:04;9.87;;;4.00;;
24801;SDS011;12898;50.520;12.152;2023-11-18T06:19:33;7.90;;;3.63;;
24801;SDS011;12898;50.520;12.152;2023-11-18T06:21:59;8.13;;;3.67;;
24801;SDS011;12898;50.520;12.152;2023-11-18T06:24:25;6.30;;;3.43;;
24801;SDS011;12898;50.520;12.152;2023-11-18T06:26:51;10.03;;;4.20;;
24801;SDS011;12898;50.520;12.152;2023-11-18T06:29:17;9.50;;;4.30;;
24801;SDS011;12898;50.520;12.152;2023-11-18T06:31:43;13.20;;;5.33;;
24801;SDS011;12898;50.520;12.152;2023-11-18T06:34:09;12.30;;;6.10;;
24801;SDS011;12898;50.520;12.152;2023-11-18T06:36:35;12.87;;;5.93;;
24801;SDS011;12898;50.520;12.152;2023-11-18T06:39:01;19.03;;;10.37;;
24801;SDS011;12898;50.520;12.152;2023-11-18T06:41:26;21.67;;;12.13;;
24801;SDS011;12898;50.520;12.152;2023-11-18T06:43:58;16.10;;;8.57;;
24801;SDS011;12898;50.520;12.152;2023-11-18T06:48:59;11.27;;;5.50;;
24801;SDS011;12898;50.520;12.152;2023-11-18T06:51:29;13.40;;;6.07;;
24801;SDS011;12898;50.520;12.152;2023-11-18T06:53:58;12.67;;;5.83;;
24801;SDS011;12898;50.520;12.152;2023-11-18T06:56:24;10.63;;;5.20;;
24801;SDS011;12898;50.520;12.152;2023-11-18T06:58:51;11.27;;;5.13;;
24801;SDS011;12898;50.520;12.152;2023-11-18T07:01:17;10.13;;;5.20;;
24801;SDS011;12898;50.520;12.152;2023-11-18T07:03:46;10.07;;;5.20;;
24801;SDS011;12898;50.520;12.152;2023-11-18T07:06:16;12.30;;;5.07;;
24801;SDS011;12898;50.520;12.152;2023-11-18T07:08:51;10.60;;;5.23;;
24801;SDS011;12898;50.520;12.152;2023-11-18T07:11:18;11.00;;;5.40;;
24801;SDS011;12898;50.520;12.152;2023-11-18T07:13:44;11.13;;;5.67;;
24801;SDS011;12898;50.520;12.152;2023-11-18T07:16:11;9.00;;;4.77;;
24801;SDS011;12898;50.520;12.152;2023-11-18T07:18:37;10.67;;;5.53;;
24801;SDS011;12898;50.520;12.152;2023-11-18T07:21:04;11.57;;;5.63;;
24801;SDS011;12898;50.520;12.152;2023-11-18T07:23:33;12.57;;;5.90;;
24801;SDS011;12898;50.520;12.152;2023-11-18T07:26:00;11.63;;;5.60;;
24801;SDS011;12898;50.520;12.152;2023-11-18T07:28:26;10.87;;;5.53;;
24801;SDS011;12898;50.520;12.152;2023-11-18T07:30:52;15.53;;;5.33;;
24801;SDS011;12898;50.520;12.152;2023-11-18T07:33:19;12.17;;;5.60;;
24801;SDS011;12898;50.520;12.152;2023-11-18T07:35:46;11.03;;;5.83;;
24801;SDS011;12898;50.520;12.152;2023-11-18T07:38:15;10.50;;;5.17;;
24801;SDS011;12898;50.520;12.152;2023-11-18T07:40:42;10.77;;;5.87;;
24801;SDS011;12898;50.520;12.152;2023-11-18T07:43:13;8.97;;;4.63;;
24801;SDS011;12898;50.520;12.152;2023-11-18T07:45:42;11.13;;;5.30;;
24801;SDS011;12898;50.520;12.152;2023-11-18T07:48:11;13.07;;;5.83;;
24801;SDS011;12898;50.520;12.152;2023-11-18T07:50:38;12.97;;;5.20;;
24801;SDS011;12898;50.520;12.152;2023-11-18T07:53:09;10.63;;;5.60;;
24801;SDS011;12898;50.520;12.152;2023-11-18T07:55:36;13.83;;;6.23;;
24801;SDS011;12898;50.520;12.152;2023-11-18T07:58:08;13.17;;;6.50;;
24801;SDS011;12898;50.520;12.152;2023-11-18T08:00:38;13.40;;;6.60;;
24801;SDS011;12898;50.520;12.152;2023-11-18T08:03:10;13.90;;;6.13;;
24801;SDS011;12898;50.520;12.152;2023-11-18T08:05:43;14.87;;;6.27;;
24801;SDS011;12898;50.520;12.152;2023-11-18T08:08:10;10.57;;;5.67;;
24801;SDS011;12898;50.520;12.152;2023-11-18T08:10:42;11.93;;;6.10;;
24801;SDS011;12898;50.520;12.152;2023-11-18T08:13:09;14.63;;;7.17;;
24801;SDS011;12898;50.520;12.152;2023-11-18T08:15:39;13.83;;;6.50;;
24801;SDS011;12898;50.520;12.152;2023-11-18T08:18:07;13.60;;;7.17;;
24801;SDS011;12898;50.520;12.152;2023-11-18T08:20:35;16.53;;;7.63;;
24801;SDS011;12898;50.520;12.152;2023-11-18T08:23:01;12.23;;;6.63;;
24801;SDS011;12898;50.520;12.152;2023-11-18T08:25:29;16.13;;;8.23;;
24801;SDS011;12898;50.520;12.152;2023-11-18T08:27:58;12.77;;;6.70;;
24801;SDS011;12898;50.520;12.152;2023-11-18T08:30:25;13.17;;;6.70;;
24801;SDS011;12898;50.520;12.152;2023-11-18T08:32:51;13.53;;;7.40;;
24801;SDS011;12898;50.520;12.152;2023-11-18T08:35:17;15.33;;;7.73;;
24801;SDS011;12898;50.520;12.152;2023-11-18T08:37:43;13.47;;;6.73;;
24801;SDS011;12898;50.520;12.152;2023-11-18T08:40:13;13.50;;;7.00;;
24801;SDS011;12898;50.520;12.152;2023-11-18T08:42:47;13.87;;;6.70;;
24801;SDS011;12898;50.520;12.152;2023-11-18T08:45:16;12.87;;;6.13;;
24801;SDS011;12898;50.520;12.152;2023-11-18T08:47:43;11.87;;;5.87;;
24801;SDS011;12898;50.520;12.152;2023-11-18T08:50:12;12.17;;;6.40;;
24801;SDS011;12898;50.520;12.152;2023-11-18T08:52:39;11.50;;;5.90;;
24801;SDS011;12898;50.520;12.152;2023-11-18T08:55:11;11.00;;;5.20;;
24801;SDS011;12898;50.520;12.152;2023-11-18T08:57:45;12.73;;;6.10;;
24801;SDS011;12898;50.520;12.152;2023-11-18T09:00:23;11.60;;;6.37;;
24801;SDS011;12898;50.520;12.152;2023-11-18T09:03:12;13.40;;;6.20;;
24801;SDS011;12898;50.520;12.152;2023-11-18T09:05:46;13.43;;;6.30;;
24801;SDS011;12898;50.520;12.152;2023-11-18T09:08:31;11.17;;;5.97;;
24801;SDS011;12898;50.520;12.152;2023-11-18T09:11:03;11.80;;;6.17;;
24801;SDS011;12898;50.520;12.152;2023-11-18T09:13:32;11.23;;;5.80;;
24801;SDS011;12898;50.520;12.152;2023-11-18T09:16:00;10.90;;;5.83;;
24801;SDS011;12898;50.520;12.152;2023-11-18T09:18:28;10.67;;;5.33;;
24801;SDS011;12898;50.520;12.152;2023-11-18T09:20:56;10.23;;;5.47;;
24801;SDS011;12898;50.520;12.152;2023-11-18T09:23:24;9.67;;;5.50;;
24801;SDS011;12898;50.520;12.152;2023-11-18T09:25:52;11.20;;;5.10;;
24801;SDS011;12898;50.520;12.152;2023-11-18T09:28:19;13.03;;;5.17;;
24801;SDS011;12898;50.520;12.152;2023-11-18T09:30:46;10.53;;;5.30;;
24801;SDS011;12898;50.520;12.152;2023-11-18T09:33:18;9.63;;;4.70;;
24801;SDS011;12898;50.520;12.152;2023-11-18T09:36:08;8.87;;;4.67;;
24801;SDS011;12898;50.520;12.152;2023-11-18T09:38:40;10.23;;;4.83;;
24801;SDS011;12898;50.520;12.152;2023-11-18T09:41:08;9.50;;;4.90;;
24801;SDS011;12898;50.520;12.152;2023-11-18T09:43:42;8.87;;;4.57;;
24801;SDS011;12898;50.520;12.152;2023-11-18T09:48:50;7.67;;;4.33;;
24801;SDS011;12898;50.520;12.152;2023-11-18T09:51:39;9.13;;;4.30;;
24801;SDS011;12898;50.520;12.152;2023-11-18T09:54:29;7.93;;;4.10;;
24801;SDS011;12898;50.520;12.152;2023-11-18T09:57:31;9.23;;;4.23;;
24801;SDS011;12898;50.520;12.152;2023-11-18T10:00:03;8.83;;;4.50;;
24801;SDS011;12898;50.520;12.152;2023-11-18T10:02:49;7.67;;;4.13;;
24801;SDS011;12898;50.520;12.152;2023-11-18T10:05:15;8.47;;;3.93;;
24801;SDS011;12898;50.520;12.152;2023-11-18T10:07:46;7.90;;;4.30;;
24801;SDS011;12898;50.520;12.152;2023-11-18T10:10:15;8.90;;;4.50;;
24801;SDS011;12898;50.520;12.152;2023-11-18T10:12:42;8.60;;;4.30;;
24801;SDS011;12898;50.520;12.152;2023-11-18T10:15:17;8.87;;;4.10;;
24801;SDS011;12898;50.520;12.152;2023-11-18T10:17:44;8.10;;;4.22;;
24801;SDS011;12898;50.520;12.152;2023-11-18T10:23:11;11.93;;;4.63;;
24801;SDS011;12898;50.520;12.152;2023-11-18T10:25:47;11.77;;;3.80;;
24801;SDS011;12898;50.520;12.152;2023-11-18T10:28:21;7.70;;;3.87;;
24801;SDS011;12898;50.520;12.152;2023-11-18T10:30:57;7.93;;;3.90;;
24801;SDS011;12898;50.520;12.152;2023-11-18T10:35:58;6.37;;;3.33;;
24801;SDS011;12898;50.520;12.152;2023-11-18T10:38:29;7.03;;;3.92;;
24801;SDS011;12898;50.520;12.152;2023-11-18T10:40:57;5.53;;;3.60;;
24801;SDS011;12898;50.520;12.152;2023-11-18T10:43:27;7.28;;;3.80;;
24801;SDS011;12898;50.520;12.152;2023-11-18T10:46:07;7.70;;;3.58;;
24801;SDS011;12898;50.520;12.152;2023-11-18T10:48:44;7.25;;;3.00;;
24801;SDS011;12898;50.520;12.152;2023-11-18T10:51:13;7.28;;;3.15;;
24801;SDS011;12898;50.520;12.152;2023-11-18T10:53:44;7.07;;;2.80;;
24801;SDS011;12898;50.520;12.152;2023-11-18T10:56:28;3.92;;;2.42;;
24801;SDS011;12898;50.520;12.152;2023-11-18T10:58:58;4.60;;;2.30;;
24801;SDS011;12898;50.520;12.152;2023-11-18T11:01:33;7.20;;;2.20;;
24801;SDS011;12898;50.520;12.152;2023-11-18T11:04:07;5.45;;;2.30;;
24801;SDS011;12898;50.520;12.152;2023-11-18T11:06:44;6.75;;;2.45;;
24801;SDS011;12898;50.520;12.152;2023-11-18T11:09:28;3.58;;;2.20;;
24801;SDS011;12898;50.520;12.152;2023-11-18T11:11:57;7.32;;;2.88;;
24801;SDS011;12898;50.520;12.152;2023-11-18T11:14:31;6.75;;;2.90;;
24801;SDS011;12898;50.520;12.152;2023-11-18T11:17:12;8.43;;;2.58;;
24801;SDS011;12898;50.520;12.152;2023-11-18T11:19:52;4.22;;;2.40;;
24801;SDS011;12898;50.520;12.152;2023-11-18T11:26:07;5.05;;;2.00;;
24801;SDS011;12898;50.520;12.152;2023-11-18T11:34:43;5.10;;;2.08;;
24801;SDS011;12898;50.520;12.152;2023-11-18T11:37:25;4.72;;;2.10;;
24801;SDS011;12898;50.520;12.152;2023-11-18T11:39:51;4.63;;;2.22;;
24801;SDS011;12898;50.520;12.152;2023-11-18T11:42:19;5.18;;;2.15;;
24801;SDS011;12898;50.520;12.152;2023-11-18T11:44:50;6.28;;;2.10;;
24801;SDS011;12898;50.520;12.152;2023-11-18T11:47:18;3.53;;;2.08;;
24801;SDS011;12898;50.520;12.152;2023-11-18T11:49:50;4.63;;;2.30;;
24801;SDS011;12898;50.520;12.152;2023-11-18T11:52:30;5.25;;;2.00;;
24801;SDS011;12898;50.520;12.152;2023-11-18T11:58:03;4.25;;;1.77;;
24801;SDS011;12898;50.520;12.152;2023-11-18T12:00:31;3.63;;;1.90;;
24801;SDS011;12898;50.520;12.152;2023-11-18T12:03:00;3.67;;;2.25;;
24801;SDS011;12898;50.520;12.152;2023-11-18T12:05:29;5.32;;;2.15;;
24801;SDS011;12898;50.520;12.152;2023-11-18T12:07:58;3.72;;;2.42;;
24801;SDS011;12898;50.520;12.152;2023-11-18T12:10:30;5.80;;;2.70;;
24801;SDS011;12898;50.520;12.152;2023-11-18T12:13:09;5.63;;;2.75;;
24801;SDS011;12898;50.520;12.152;2023-11-18T12:15:51;9.18;;;2.92;;
24801;SDS011;12898;50.520;12.152;2023-11-18T12:18:30;3.50;;;2.35;;
24801;SDS011;12898;50.520;12.152;2023-11-18T12:21:02;7.07;;;2.60;;
24801;SDS011;12898;50.520;12.152;2023-11-18T12:23:29;8.57;;;2.50;;
24801;SDS011;12898;50.520;12.152;2023-11-18T12:25:56;4.72;;;2.47;;
24801;SDS011;12898;50.520;12.152;2023-11-18T12:28:28;5.35;;;2.85;;
24801;SDS011;12898;50.520;12.152;2023-11-18T12:31:03;4.90;;;2.50;;
24801;SDS011;12898;50.520;12.152;2023-11-18T12:45:32;3.47;;;2.20;;
24801;SDS011;12898;50.520;12.152;2023-11-18T12:48:15;3.10;;;1.92;;
24801;SDS011;12898;50.520;12.152;2023-11-18T12:50:51;3.83;;;2.40;;
24801;SDS011;12898;50.520;12.152;2023-11-18T12:53:20;3.60;;;2.05;;
24801;SDS011;12898;50.520;12.152;2023-11-18T12:55:49;3.53;;;2.25;;
24801;SDS011;12898;50.520;12.152;2023-11-18T12:58:15;3.50;;;2.00;;
24801;SDS011;12898;50.520;12.152;2023-11-18T13:00:43;4.22;;;2.00;;
24801;SDS011;12898;50.520;12.152;2023-11-18T13:03:10;3.75;;;1.65;;
24801;SDS011;12898;50.520;12.152;2023-11-18T13:05:39;3.10;;;1.75;;
24801;SDS011;12898;50.520;12.152;2023-11-18T13:08:04;3.88;;;1.90;;
24801;SDS011;12898;50.520;12.152;2023-11-18T13:10:30;5.03;;;1.63;;
24801;SDS011;12898;50.520;12.152;2023-11-18T13:12:56;3.38;;;1.55;;
24801;SDS011;12898;50.520;12.152;2023-11-18T13:15:24;2.28;;;1.40;;
24801;SDS011;12898;50.520;12.152;2023-11-18T13:18:00;2.90;;;1.60;;
24801;SDS011;12898;50.520;12.152;2023-11-18T13:20:31;2.95;;;1.67;;
24801;SDS011;12898;50.520;12.152;2023-11-18T13:23:01;3.03;;;1.60;;
24801;SDS011;12898;50.520;12.152;2023-11-18T13:25:34;5.78;;;1.48;;
24801;SDS011;12898;50.520;12.152;2023-11-18T13:28:03;2.45;;;1.40;;
24801;SDS011;12898;50.520;12.152;2023-11-18T13:30:35;2.80;;;1.67;;
24801;SDS011;12898;50.520;12.152;2023-11-18T13:33:01;3.55;;;1.77;;
24801;SDS011;12898;50.520;12.152;2023-11-18T13:35:27;3.10;;;1.70;;
24801;SDS011;12898;50.520;12.152;2023-11-18T13:37:54;6.78;;;2.47;;
24801;SDS011;12898;50.520;12.152;2023-11-18T13:40:20;3.83;;;2.00;;
24801;SDS011;12898;50.520;12.152;2023-11-18T13:42:45;6.78;;;2.40;;
24801;SDS011;12898;50.520;12.152;2023-11-18T13:45:12;3.20;;;1.77;;
24801;SDS011;12898;50.520;12.152;2023-11-18T13:47:51;4.35;;;2.15;;
24801;SDS011;12898;50.520;12.152;2023-11-18T13:50:17;5.13;;;2.22;;
24801;SDS011;12898;50.520;12.152;2023-11-18T13:52:44;4.57;;;2.13;;
24801;SDS011;12898;50.520;12.152;2023-11-18T13:55:11;3.22;;;1.95;;
24801;SDS011;12898;50.520;12.152;2023-11-18T13:57:42;3.97;;;2.20;;
24801;SDS011;12898;50.520;12.152;2023-11-18T14:00:09;2.75;;;1.92;;
24801;SDS011;12898;50.520;12.152;2023-11-18T14:02:40;2.20;;;1.50;;
24801;SDS011;12898;50.520;12.152;2023-11-18T14:05:16;3.03;;;1.95;;
24801;SDS011;12898;50.520;12.152;2023-11-18T14:07:52;3.95;;;1.63;;
24801;SDS011;12898;50.520;12.152;2023-11-18T14:10:24;2.93;;;1.60;;
24801;SDS011;12898;50.520;12.152;2023-11-18T14:13:03;3.90;;;2.03;;
24801;SDS011;12898;50.520;12.152;2023-11-18T14:15:37;2.75;;;1.90;;
24801;SDS011;12898;50.520;12.152;2023-11-18T14:18:03;3.70;;;2.10;;
24801;SDS011;12898;50.520;12.152;2023-11-18T14:20:32;6.05;;;2.00;;
24801;SDS011;12898;50.520;12.152;2023-11-18T14:23:00;4.28;;;2.40;;
24801;SDS011;12898;50.520;12.152;2023-11-18T14:25:32;5.25;;;2.35;;
24801;SDS011;12898;50.520;12.152;2023-11-18T14:27:59;4.63;;;2.30;;
24801;SDS011;12898;50.520;12.152;2023-11-18T14:30:25;4.40;;;2.10;;
24801;SDS011;12898;50.520;12.152;2023-11-18T14:32:51;6.05;;;2.50;;
24801;SDS011;12898;50.520;12.152;2023-11-18T14:35:17;4.07;;;2.33;;
24801;SDS011;12898;50.520;12.152;2023-11-18T14:37:44;4.22;;;2.50;;
24801;SDS011;12898;50.520;12.152;2023-11-18T14:40:13;4.80;;;2.60;;
24801;SDS011;12898;50.520;12.152;2023-11-18T14:42:43;4.03;;;2.27;;
24801;SDS011;12898;50.520;12.152;2023-11-18T14:45:11;8.97;;;4.07;;
24801;SDS011;12898;50.520;12.152;2023-11-18T14:47:39;8.93;;;3.90;;
24801;SDS011;12898;50.520;12.152;2023-11-18T14:50:06;9.87;;;5.60;;
24801;SDS011;12898;50.520;12.152;2023-11-18T14:52:41;6.37;;;3.20;;
24801;SDS011;12898;50.520;12.152;2023-11-18T14:55:08;5.63;;;3.10;;
24801;SDS011;12898;50.520;12.152;2023-11-18T14:57:38;5.33;;;3.10;;
24801;SDS011;12898;50.520;12.152;2023-11-18T15:00:05;8.67;;;4.00;;
24801;SDS011;12898;50.520;12.152;2023-11-18T15:02:33;8.07;;;4.63;;
24801;SDS011;12898;50.520;12.152;2023-11-18T15:05:02;9.30;;;4.53;;
24801;SDS011;12898;50.520;12.152;2023-11-18T15:07:33;9.07;;;4.83;;
24801;SDS011;12898;50.520;12.152;2023-11-18T15:09:59;9.60;;;5.30;;
24801;SDS011;12898;50.520;12.152;2023-11-18T15:12:25;12.33;;;5.30;;
24801;SDS011;12898;50.520;12.152;2023-11-18T15:14:51;10.63;;;5.40;;
24801;SDS011;12898;50.520;12.152;2023-11-18T15:17:16;10.93;;;5.47;;